createdAt,value
2022-10-29T00:02:08.678Z,12.93
2022-10-29T00:04:35.153Z,12.94
2022-10-29T00:07:01.653Z,12.92
2022-10-29T00:09:28.109Z,12.99
2022-10-29T00:11:54.549Z,13.00
2022-10-29T00:14:21.098Z,12.98
2022-10-29T00:16:47.535Z,13.02
2022-10-29T00:19:14.113Z,12.98
2022-10-29T00:21:40.611Z,12.99
2022-10-29T00:24:09.708Z,13.07
2022-10-29T00:26:36.279Z,13.09
2022-10-29T00:29:03.073Z,13.09
2022-10-29T00:31:29.630Z,13.12
2022-10-29T00:33:56.297Z,13.10
2022-10-29T00:36:26.340Z,13.10
2022-10-29T00:38:53.358Z,13.07
2022-10-29T00:41:22.989Z,13.06
2022-10-29T00:43:52.018Z,13.07
2022-10-29T00:46:27.133Z,13.06
2022-10-29T00:48:55.698Z,13.06
2022-10-29T00:51:23.153Z,13.10
2022-10-29T00:53:56.000Z,13.13
2022-10-29T00:56:25.383Z,13.08
2022-10-29T00:58:52.352Z,13.08
2022-10-29T01:01:19.572Z,13.07
2022-10-29T01:03:47.890Z,13.10
2022-10-29T01:06:14.925Z,13.13
2022-10-29T01:08:41.570Z,13.13
2022-10-29T01:16:24.726Z,13.08
2022-10-29T01:19:09.909Z,13.06
2022-10-29T01:22:01.178Z,13.08
2022-10-29T01:24:45.992Z,13.06
2022-10-29T01:27:38.302Z,13.13
2022-10-29T01:30:18.661Z,13.14
2022-10-29T01:32:54.325Z,13.18
2022-10-29T01:35:34.230Z,13.16
2022-10-29T01:38:25.235Z,13.22
2022-10-29T01:40:56.485Z,13.23
2022-10-29T01:43:34.759Z,13.20
2022-10-29T01:46:24.882Z,13.20
2022-10-29T01:48:58.192Z,13.19
2022-10-29T01:51:29.199Z,13.22
2022-10-29T01:53:58.184Z,13.37
2022-10-29T01:56:24.685Z,13.45
2022-10-29T01:58:57.256Z,13.56
2022-10-29T02:01:35.095Z,13.63
2022-10-29T02:04:23.667Z,13.61
2022-10-29T02:06:54.968Z,13.54
2022-10-29T02:09:33.413Z,13.49
2022-10-29T02:12:34.749Z,13.44
2022-10-29T02:15:10.132Z,13.42
2022-10-29T02:17:37.249Z,13.42
2022-10-29T02:20:05.723Z,13.37
2022-10-29T02:22:32.382Z,13.36
2022-10-29T02:24:58.995Z,13.32
2022-10-29T02:27:25.400Z,13.30
2022-10-29T02:29:51.715Z,13.25
2022-10-29T02:32:18.117Z,13.21
2022-10-29T02:34:44.591Z,13.18
2022-10-29T02:37:10.947Z,13.15
2022-10-29T02:39:37.285Z,13.13
2022-10-29T02:42:03.797Z,13.10
2022-10-29T02:44:30.154Z,13.12
2022-10-29T02:46:56.477Z,13.20
2022-10-29T02:49:22.862Z,13.19
2022-10-29T02:51:50.190Z,13.20
2022-10-29T02:54:16.512Z,13.11
2022-10-29T02:56:42.837Z,13.04
2022-10-29T02:59:11.853Z,12.94
2022-10-29T03:01:38.861Z,12.86
2022-10-29T03:04:05.648Z,12.86
2022-10-29T03:06:32.138Z,12.84
2022-10-29T03:08:58.532Z,12.81
2022-10-29T03:11:24.881Z,12.73
2022-10-29T03:13:51.245Z,12.70
2022-10-29T03:16:17.749Z,12.65
2022-10-29T03:18:44.105Z,12.61
2022-10-29T03:21:10.470Z,12.59
2022-10-29T03:23:36.817Z,12.53
2022-10-29T03:26:03.190Z,12.47
2022-10-29T03:28:30.596Z,12.43
2022-10-29T03:30:57.990Z,12.41
2022-10-29T03:33:26.560Z,12.36
2022-10-29T03:36:00.340Z,12.35
2022-10-29T03:38:26.940Z,12.33
2022-10-29T03:40:53.318Z,12.32
2022-10-29T03:43:20.018Z,12.29
2022-10-29T03:45:57.141Z,12.27
2022-10-29T03:48:25.351Z,12.29
2022-10-29T03:51:01.330Z,12.26
2022-10-29T03:53:28.595Z,12.22
2022-10-29T03:55:56.462Z,12.20
2022-10-29T03:58:23.680Z,12.23
2022-10-29T04:00:55.106Z,12.27
2022-10-29T04:03:21.503Z,12.26
2022-10-29T04:05:47.898Z,12.31
2022-10-29T04:08:14.270Z,12.27
2022-10-29T04:10:45.604Z,12.23
2022-10-29T04:13:12.566Z,12.13
2022-10-29T04:15:40.477Z,12.15
2022-10-29T04:18:07.793Z,12.18
2022-10-29T04:21:05.740Z,12.17
2022-10-29T04:28:53.865Z,12.54
2022-10-29T04:31:21.089Z,12.63
2022-10-29T04:33:47.493Z,12.72
2022-10-29T04:36:13.966Z,12.72
2022-10-29T04:38:40.505Z,12.82
2022-10-29T04:41:06.910Z,12.91
2022-10-29T04:43:33.278Z,12.77
2022-10-29T04:45:59.862Z,12.60
2022-10-29T04:48:27.761Z,12.52
2022-10-29T04:50:54.522Z,12.53
2022-10-29T04:53:21.170Z,12.59
2022-10-29T04:55:47.813Z,12.84
2022-10-29T04:58:19.356Z,13.08
2022-10-29T05:00:46.175Z,13.35
2022-10-29T05:03:13.078Z,13.42
2022-10-29T05:05:40.407Z,13.56
2022-10-29T05:08:07.572Z,13.63
2022-10-29T05:10:36.408Z,13.73
2022-10-29T05:13:05.607Z,13.82
2022-10-29T05:15:31.972Z,13.87
2022-10-29T05:17:58.719Z,13.86
2022-10-29T05:20:26.034Z,13.88
2022-10-29T05:23:03.863Z,13.89
2022-10-29T05:25:34.783Z,13.88
2022-10-29T05:28:06.949Z,13.95
2022-10-29T05:30:34.658Z,13.99
2022-10-29T05:33:01.204Z,14.02
2022-10-29T05:35:27.886Z,14.11
2022-10-29T05:37:55.313Z,14.10
2022-10-29T05:40:22.768Z,14.07
2022-10-29T05:42:49.418Z,14.16
2022-10-29T05:45:16.759Z,14.16
2022-10-29T05:47:43.297Z,14.21
2022-10-29T05:50:11.036Z,14.20
2022-10-29T05:52:37.577Z,14.21
2022-10-29T05:55:04.457Z,14.35
2022-10-29T05:57:31.014Z,14.38
2022-10-29T05:59:57.332Z,14.41
2022-10-29T06:02:23.817Z,14.43
2022-10-29T06:04:50.353Z,14.38
2022-10-29T06:07:16.940Z,14.41
2022-10-29T06:09:43.432Z,14.34
2022-10-29T06:12:09.869Z,14.32
2022-10-29T06:14:36.237Z,14.37
2022-10-29T06:17:02.699Z,14.36
2022-10-29T06:19:29.130Z,14.38
2022-10-29T06:21:57.912Z,14.36
2022-10-29T06:24:26.712Z,14.37
2022-10-29T06:26:54.107Z,14.38
2022-10-29T06:29:20.515Z,14.37
2022-10-29T06:31:47.029Z,14.37
2022-10-29T06:34:14.551Z,14.34
2022-10-29T06:36:40.950Z,14.32
2022-10-29T06:39:07.312Z,14.33
2022-10-29T06:41:33.662Z,14.35
2022-10-29T06:44:00.144Z,14.44
2022-10-29T06:46:26.498Z,14.51
2022-10-29T06:48:52.877Z,14.45
2022-10-29T06:51:19.267Z,14.55
2022-10-29T06:53:45.800Z,14.66
2022-10-29T06:56:12.163Z,14.68
2022-10-29T06:58:38.484Z,14.76
2022-10-29T07:01:05.129Z,14.85
2022-10-29T07:03:31.557Z,14.85
2022-10-29T07:06:00.176Z,14.91
2022-10-29T07:08:26.815Z,14.97
2022-10-29T07:10:54.035Z,14.94
2022-10-29T07:13:20.488Z,14.97
2022-10-29T07:15:46.910Z,14.97
2022-10-29T07:18:13.494Z,15.09
2022-10-29T07:20:44.672Z,15.03
2022-10-29T07:23:12.643Z,15.06
2022-10-29T07:25:42.053Z,15.10
2022-10-29T07:28:13.247Z,15.11
2022-10-29T07:30:40.622Z,15.16
2022-10-29T07:33:06.990Z,15.21
2022-10-29T07:35:34.698Z,15.23
2022-10-29T07:38:07.082Z,15.18
2022-10-29T07:40:37.544Z,15.19
2022-10-29T07:43:03.975Z,15.21
2022-10-29T07:45:30.390Z,15.23
2022-10-29T07:48:03.202Z,15.23
2022-10-29T07:50:31.026Z,15.22
2022-10-29T07:53:01.168Z,15.25
2022-10-29T07:58:02.234Z,15.26
2022-10-29T08:00:29.827Z,15.27
2022-10-29T08:02:57.178Z,15.33
2022-10-29T08:05:24.957Z,15.35
2022-10-29T08:07:54.847Z,15.42
2022-10-29T08:10:22.716Z,15.47
2022-10-29T08:12:50.383Z,15.51
2022-10-29T08:15:17.681Z,15.63
2022-10-29T08:17:44.342Z,15.65
2022-10-29T08:20:11.066Z,15.70
2022-10-29T08:22:37.406Z,15.83
2022-10-29T08:25:04.188Z,15.89
2022-10-29T08:27:30.592Z,15.96
2022-10-29T08:29:57.383Z,15.94
2022-10-29T08:32:23.785Z,16.01
2022-10-29T08:34:50.182Z,16.05
2022-10-29T08:37:16.638Z,16.10
2022-10-29T08:39:43.000Z,16.20
2022-10-29T08:42:46.455Z,16.31
2022-10-29T08:45:28.180Z,16.38
2022-10-29T08:48:09.798Z,16.40
2022-10-29T08:50:43.288Z,16.53
2022-10-29T08:53:41.111Z,16.57
2022-10-29T08:56:16.327Z,16.66
2022-10-29T08:58:53.231Z,16.63
2022-10-29T09:01:22.729Z,16.65
2022-10-29T09:03:50.874Z,16.70
2022-10-29T09:06:43.428Z,16.63
2022-10-29T09:09:31.731Z,16.73
2022-10-29T09:12:21.496Z,16.79
2022-10-29T09:14:54.102Z,16.93
2022-10-29T09:17:33.647Z,16.97
2022-10-29T09:20:19.154Z,16.99
2022-10-29T09:22:48.157Z,17.04
2022-10-29T09:25:38.533Z,17.12
2022-10-29T09:28:26.212Z,17.18
2022-10-29T09:31:08.640Z,17.22
2022-10-29T09:33:34.966Z,17.24
2022-10-29T09:36:01.999Z,17.21
2022-10-29T09:38:40.159Z,17.20
2022-10-29T09:41:11.828Z,17.18
2022-10-29T09:43:45.201Z,17.34
2022-10-29T09:46:29.518Z,17.38
2022-10-29T09:49:14.657Z,17.51
2022-10-29T09:52:00.265Z,17.61
2022-10-29T09:54:30.356Z,17.69
2022-10-29T09:56:58.522Z,17.72
2022-10-29T09:59:40.508Z,17.76
2022-10-29T10:02:24.567Z,17.75
2022-10-29T10:04:55.310Z,17.79
2022-10-29T10:07:21.668Z,17.85
2022-10-29T10:10:02.636Z,17.84
2022-10-29T10:12:38.172Z,17.88
2022-10-29T10:15:27.544Z,18.11
2022-10-29T10:18:05.840Z,18.05
2022-10-29T10:20:35.647Z,18.25
2022-10-29T10:23:18.521Z,18.25
2022-10-29T10:25:44.963Z,18.26
2022-10-29T10:28:21.183Z,18.26
2022-10-29T10:31:10.683Z,18.31
2022-10-29T10:33:48.053Z,18.38
2022-10-29T10:36:15.235Z,18.33
2022-10-29T10:38:48.279Z,18.35
2022-10-29T10:41:16.321Z,18.37
2022-10-29T10:43:45.544Z,18.40
2022-10-29T10:46:23.898Z,18.47
2022-10-29T10:49:05.809Z,18.41
2022-10-29T10:51:34.386Z,18.49
2022-10-29T10:54:04.528Z,18.52
2022-10-29T10:56:31.105Z,18.60
2022-10-29T10:59:05.454Z,18.56
2022-10-29T11:01:37.334Z,18.60
2022-10-29T11:04:26.653Z,18.64
2022-10-29T11:06:58.376Z,18.70
2022-10-29T11:09:30.079Z,18.69
2022-10-29T11:12:30.012Z,18.70
2022-10-29T11:15:06.672Z,18.69
2022-10-29T11:17:47.741Z,18.70
2022-10-29T11:20:36.262Z,18.67
2022-10-29T11:23:13.601Z,18.66
2022-10-29T11:25:45.869Z,18.67
2022-10-29T11:28:20.970Z,18.74
2022-10-29T11:30:54.773Z,18.69
2022-10-29T11:33:48.599Z,18.68
2022-10-29T11:36:20.603Z,18.73
2022-10-29T11:39:10.601Z,18.70
2022-10-29T11:42:09.988Z,18.69
2022-10-29T11:44:38.941Z,18.80
2022-10-29T11:47:30.317Z,18.89
2022-10-29T11:50:05.877Z,18.92
2022-10-29T11:52:46.377Z,18.98
2022-10-29T11:55:15.445Z,19.02
2022-10-29T11:57:50.826Z,19.04
2022-10-29T12:00:23.786Z,19.07
2022-10-29T12:02:59.333Z,19.09
2022-10-29T12:05:48.535Z,19.16
2022-10-29T12:08:17.842Z,19.15
2022-10-29T12:11:03.534Z,19.24
2022-10-29T12:13:38.651Z,19.30
2022-10-29T12:16:20.289Z,19.37
2022-10-29T12:18:55.054Z,19.41
2022-10-29T12:21:47.561Z,19.54
2022-10-29T12:24:16.626Z,19.59
2022-10-29T12:26:46.248Z,19.61
2022-10-29T12:29:46.669Z,19.74
2022-10-29T12:32:25.371Z,19.75
2022-10-29T12:35:02.680Z,19.85
2022-10-29T12:37:35.670Z,19.89
2022-10-29T12:40:50.271Z,19.88
2022-10-29T12:43:25.763Z,19.81
2022-10-29T12:46:19.589Z,19.84
2022-10-29T12:48:53.345Z,19.83
2022-10-29T12:51:24.318Z,19.81
2022-10-29T12:54:14.457Z,19.71
2022-10-29T12:56:45.011Z,19.77
2022-10-29T12:59:23.539Z,19.68
2022-10-29T13:02:11.489Z,19.63
2022-10-29T13:04:37.677Z,19.66
2022-10-29T13:07:23.127Z,19.70
2022-10-29T13:10:21.913Z,19.62
2022-10-29T13:13:15.661Z,19.60
2022-10-29T13:16:03.681Z,19.67
2022-10-29T13:18:41.712Z,19.60
2022-10-29T13:21:08.532Z,19.59
2022-10-29T13:23:37.335Z,19.60
2022-10-29T13:26:08.613Z,19.67
2022-10-29T13:28:37.918Z,19.71
2022-10-29T13:31:04.292Z,19.73
2022-10-29T13:33:30.611Z,19.83
2022-10-29T13:35:57.935Z,19.85
2022-10-29T13:39:05.234Z,19.89
2022-10-29T13:41:44.761Z,19.85
2022-10-29T13:44:16.785Z,19.85
2022-10-29T13:47:04.586Z,19.90
2022-10-29T13:49:42.129Z,19.82
2022-10-29T13:52:16.612Z,19.88
2022-10-29T13:54:54.888Z,19.80
2022-10-29T13:57:29.926Z,19.80
2022-10-29T14:00:16.683Z,19.73
2022-10-29T14:02:43.077Z,19.71
2022-10-29T14:05:15.637Z,19.71
2022-10-29T14:07:51.902Z,19.70
2022-10-29T14:10:24.135Z,19.71
2022-10-29T14:12:57.174Z,19.67
2022-10-29T14:15:23.925Z,19.72
2022-10-29T14:17:50.324Z,19.76
2022-10-29T14:20:25.588Z,19.79
2022-10-29T14:22:52.120Z,19.73
2022-10-29T14:25:24.469Z,19.72
2022-10-29T14:28:17.386Z,19.79
2022-10-29T14:30:48.658Z,19.80
2022-10-29T14:33:30.778Z,19.74
2022-10-29T14:36:05.575Z,19.69
2022-10-29T14:38:39.654Z,19.56
2022-10-29T14:41:06.377Z,19.62
2022-10-29T14:43:33.080Z,19.53
2022-10-29T14:46:12.698Z,19.60
2022-10-29T14:48:45.143Z,19.50
2022-10-29T14:51:19.009Z,19.36
2022-10-29T14:53:45.720Z,19.31
2022-10-29T14:56:19.998Z,19.25
2022-10-29T14:58:47.432Z,19.21
2022-10-29T15:01:18.638Z,19.06
2022-10-29T15:03:45.176Z,18.95
2022-10-29T15:06:20.295Z,18.92
2022-10-29T15:08:56.454Z,18.87
2022-10-29T15:11:36.910Z,18.73
2022-10-29T15:14:05.276Z,18.63
2022-10-29T15:16:36.755Z,18.60
2022-10-29T15:19:16.215Z,18.46
2022-10-29T15:21:43.479Z,18.47
2022-10-29T15:24:20.531Z,18.48
2022-10-29T15:26:56.221Z,18.33
2022-10-29T15:29:36.237Z,18.32
2022-10-29T15:32:04.949Z,18.28
2022-10-29T15:34:35.165Z,18.21
2022-10-29T15:37:19.892Z,18.19
2022-10-29T15:39:55.598Z,18.11
2022-10-29T15:42:26.090Z,18.11
2022-10-29T15:45:20.310Z,17.99
2022-10-29T15:47:49.716Z,18.01
2022-10-29T15:50:19.960Z,17.95
2022-10-29T15:52:59.378Z,17.92
2022-10-29T15:55:34.540Z,17.95
2022-10-29T15:58:12.222Z,17.92
2022-10-29T16:00:39.227Z,17.78
2022-10-29T16:03:22.790Z,17.76
2022-10-29T16:05:51.483Z,17.69
2022-10-29T16:08:41.071Z,17.61
2022-10-29T16:11:14.882Z,17.58
2022-10-29T16:13:41.673Z,17.51
2022-10-29T16:16:17.277Z,17.51
2022-10-29T16:18:44.096Z,17.48
2022-10-29T16:21:14.308Z,17.43
2022-10-29T16:23:41.076Z,17.40
2022-10-29T16:26:10.253Z,17.37
2022-10-29T16:28:36.577Z,17.32
2022-10-29T16:31:02.987Z,17.33
2022-10-29T16:33:29.438Z,17.34
2022-10-29T16:35:55.854Z,17.29
2022-10-29T16:38:22.186Z,17.28
2022-10-29T16:40:48.540Z,17.22
2022-10-29T16:43:14.879Z,17.25
2022-10-29T16:45:41.272Z,17.27
2022-10-29T16:48:07.682Z,17.20
2022-10-29T16:50:34.767Z,17.15
2022-10-29T16:53:06.598Z,17.17
2022-10-29T16:55:35.917Z,17.21
2022-10-29T16:58:02.445Z,17.23
2022-10-29T17:00:33.031Z,17.17
2022-10-29T17:03:03.560Z,17.13
2022-10-29T17:05:35.534Z,17.06
2022-10-29T17:08:02.059Z,17.06
2022-10-29T17:10:30.669Z,17.08
2022-10-29T17:12:58.564Z,17.02
2022-10-29T17:15:25.311Z,17.02
2022-10-29T17:17:52.105Z,17.01
2022-10-29T17:20:18.526Z,16.84
2022-10-29T17:22:45.268Z,16.85
2022-10-29T17:25:11.937Z,16.78
2022-10-29T17:27:41.170Z,16.79
2022-10-29T17:30:09.605Z,16.76
2022-10-29T17:32:36.488Z,16.70
2022-10-29T17:35:03.222Z,16.63
2022-10-29T17:37:29.671Z,16.55
2022-10-29T17:39:56.088Z,16.62
2022-10-29T17:42:22.760Z,16.62
2022-10-29T17:44:49.103Z,16.68
2022-10-29T17:47:15.784Z,16.68
2022-10-29T17:49:42.151Z,16.81
2022-10-29T17:52:08.499Z,16.77
2022-10-29T17:54:35.396Z,16.83
2022-10-29T17:57:01.951Z,16.83
2022-10-29T17:59:28.328Z,16.78
2022-10-29T18:01:54.780Z,16.72
2022-10-29T18:04:21.171Z,16.71
2022-10-29T18:06:47.532Z,16.69
2022-10-29T18:09:17.090Z,16.66
2022-10-29T18:11:49.564Z,16.63
2022-10-29T18:14:16.069Z,16.63
2022-10-29T18:16:42.448Z,16.66
2022-10-29T18:19:08.888Z,16.65
2022-10-29T18:21:35.285Z,16.70
2022-10-29T18:24:01.709Z,16.69
2022-10-29T18:26:30.812Z,16.69
2022-10-29T18:28:59.039Z,16.74
2022-10-29T18:31:27.892Z,16.81
2022-10-29T18:33:55.377Z,16.82
2022-10-29T18:36:21.790Z,16.90
2022-10-29T18:38:54.364Z,16.94
2022-10-29T18:41:21.367Z,16.99
2022-10-29T18:43:47.840Z,16.93
2022-10-29T18:46:14.845Z,17.00
2022-10-29T18:48:42.878Z,17.02
2022-10-29T18:51:15.140Z,16.92
2022-10-29T18:53:41.632Z,16.90
2022-10-29T18:56:13.565Z,16.82
2022-10-29T18:58:40.285Z,16.83
2022-10-29T19:01:09.582Z,16.80
2022-10-29T19:03:37.176Z,16.79
2022-10-29T19:06:07.035Z,16.77
2022-10-29T19:08:37.641Z,16.81
2022-10-29T19:11:06.004Z,16.88
2022-10-29T19:13:32.758Z,16.90
2022-10-29T19:16:07.430Z,16.82
2022-10-29T19:18:34.755Z,16.97
2022-10-29T19:21:07.070Z,16.92
2022-10-29T19:23:33.986Z,16.91
2022-10-29T19:26:05.542Z,16.91
2022-10-29T19:28:32.964Z,16.91
2022-10-29T19:31:11.145Z,16.74
2022-10-29T19:33:38.154Z,16.69
2022-10-29T19:36:06.326Z,16.73
2022-10-29T19:38:33.030Z,16.71
2022-10-29T19:41:00.040Z,16.73
2022-10-29T19:43:29.091Z,16.86
2022-10-29T19:45:55.572Z,16.93
2022-10-29T19:48:22.335Z,16.96
2022-10-29T19:50:56.528Z,16.90
2022-10-29T19:53:23.934Z,16.91
2022-10-29T19:55:50.731Z,16.83
2022-10-29T19:58:25.981Z,16.86
2022-10-29T20:00:52.940Z,16.90
2022-10-29T20:03:20.078Z,16.84
2022-10-29T20:05:46.719Z,16.86
2022-10-29T20:08:15.984Z,16.83
2022-10-29T20:10:43.064Z,16.74
2022-10-29T20:13:09.451Z,16.85
2022-10-29T20:15:38.475Z,16.69
2022-10-29T20:18:05.153Z,16.61
2022-10-29T20:20:31.557Z,16.62
2022-10-29T20:22:59.464Z,16.50
2022-10-29T20:25:26.476Z,16.46
2022-10-29T20:27:52.947Z,16.53
2022-10-29T20:30:19.386Z,16.46
2022-10-29T20:32:45.776Z,16.37
2022-10-29T20:35:12.128Z,16.34
2022-10-29T20:37:38.535Z,16.39
2022-10-29T20:40:05.506Z,16.32
2022-10-29T20:42:31.977Z,16.39
2022-10-29T20:44:58.358Z,16.29
2022-10-29T20:47:24.964Z,16.31
2022-10-29T20:49:51.346Z,16.34
2022-10-29T20:52:17.745Z,16.29
2022-10-29T20:54:44.112Z,16.31
2022-10-29T20:57:10.441Z,16.30
2022-10-29T20:59:36.804Z,16.35
2022-10-29T21:02:03.273Z,16.48
2022-10-29T21:04:29.804Z,16.45
2022-10-29T21:06:56.151Z,16.51
2022-10-29T21:09:22.786Z,16.54
2022-10-29T21:11:49.138Z,16.52
2022-10-29T21:14:15.484Z,16.52
2022-10-29T21:16:41.850Z,16.46
2022-10-29T21:19:08.320Z,16.44
2022-10-29T21:21:34.717Z,16.35
2022-10-29T21:24:01.095Z,16.29
2022-10-29T21:26:28.721Z,16.28
2022-10-29T21:28:55.779Z,16.37
2022-10-29T21:31:22.959Z,16.36
2022-10-29T21:33:53.823Z,16.33
2022-10-29T21:36:20.690Z,16.30
2022-10-29T21:38:48.212Z,16.22
2022-10-29T21:41:15.270Z,16.20
2022-10-29T21:43:41.653Z,16.18
2022-10-29T21:46:08.408Z,16.18
2022-10-29T21:48:34.885Z,16.22
2022-10-29T21:51:05.150Z,16.29
2022-10-29T21:53:31.734Z,16.26
2022-10-29T21:55:59.900Z,16.19
2022-10-29T21:58:26.795Z,16.13
2022-10-29T22:01:11.012Z,16.21
2022-10-29T22:03:41.181Z,16.11
2022-10-29T22:06:13.849Z,16.13
2022-10-29T22:08:41.019Z,16.02
2022-10-29T22:11:07.664Z,15.89
2022-10-29T22:13:34.857Z,15.80
2022-10-29T22:16:03.337Z,15.70
2022-10-29T22:18:29.993Z,15.64
2022-10-29T22:21:13.862Z,15.60
2022-10-29T22:23:45.011Z,15.58
2022-10-29T22:26:13.519Z,15.52
2022-10-29T22:28:40.128Z,15.45
2022-10-29T22:31:06.725Z,15.43
2022-10-29T22:33:33.848Z,15.39
2022-10-29T22:36:05.766Z,15.32
2022-10-29T22:38:32.395Z,15.25
2022-10-29T22:41:07.025Z,15.20
2022-10-29T22:43:33.529Z,15.13
2022-10-29T22:45:59.972Z,15.10
2022-10-29T22:48:26.628Z,15.07
2022-10-29T22:51:04.422Z,15.02
2022-10-29T22:53:31.260Z,14.99
2022-10-29T22:55:58.193Z,14.99
2022-10-29T22:58:24.805Z,14.97
2022-10-29T23:01:27.184Z,14.95
2022-10-29T23:03:53.967Z,15.00
2022-10-29T23:06:22.216Z,15.03
2022-10-29T23:08:51.844Z,15.19
2022-10-29T23:11:24.153Z,15.50
2022-10-29T23:13:53.358Z,15.55
2022-10-29T23:16:20.606Z,15.74
2022-10-29T23:18:51.481Z,15.87
2022-10-29T23:21:18.413Z,16.01
2022-10-29T23:23:45.984Z,16.17
2022-10-29T23:26:14.855Z,16.22
2022-10-29T23:28:41.531Z,16.28
2022-10-29T23:31:12.746Z,16.39
2022-10-29T23:33:43.889Z,16.47
2022-10-29T23:36:10.672Z,16.48
2022-10-29T23:38:37.030Z,16.48
2022-10-29T23:41:03.844Z,16.52
2022-10-29T23:43:30.333Z,16.45
2022-10-29T23:45:56.814Z,16.44
2022-10-29T23:48:23.350Z,16.36
2022-10-29T23:50:49.876Z,16.28
2022-10-29T23:53:16.765Z,16.27
2022-10-29T23:55:43.821Z,16.30
2022-10-29T23:58:11.052Z,16.34
